sensor_id;sensor_type;location;lat;lon;timestamp;pressure;altitude;pressure_sealevel;temperature;humidity
19672;BME280;9983;51.114;13.788;2022-09-19T00:04:01;98538.56;;;12.72;100.00
19672;BME280;9983;51.114;13.788;2022-09-19T00:09:04;98532.59;;;12.57;100.00
19672;BME280;9983;51.114;13.788;2022-09-19T00:14:04;98539.28;;;12.08;100.00
19672;BME280;9983;51.114;13.788;2022-09-19T00:19:07;98542.34;;;11.72;100.00
19672;BME280;9983;51.114;13.788;2022-09-19T00:24:11;98547.53;;;11.13;100.00
19672;BME280;9983;51.114;13.788;2022-09-19T00:29:32;98541.06;;;11.49;100.00
19672;BME280;9983;51.114;13.788;2022-09-19T00:34:33;98543.59;;;12.49;100.00
19672;BME280;9983;51.114;13.788;2022-09-19T00:39:33;98528.75;;;12.27;100.00
19672;BME280;9983;51.114;13.788;2022-09-19T00:49:36;98522.41;;;12.85;100.00
19672;BME280;9983;51.114;13.788;2022-09-19T00:54:41;98531.16;;;12.61;100.00
19672;BME280;9983;51.114;13.788;2022-09-19T00:59:47;98536.16;;;12.51;100.00
19672;BME280;9983;51.114;13.788;2022-09-19T01:04:48;98519.97;;;12.64;100.00
19672;BME280;9983;51.114;13.788;2022-09-19T01:15:21;98538.25;;;12.23;100.00
19672;BME280;9983;51.114;13.788;2022-09-19T01:20:48;98539.91;;;11.84;100.00
19672;BME280;9983;51.114;13.788;2022-09-19T01:31:25;98533.25;;;12.39;100.00
19672;BME280;9983;51.114;13.788;2022-09-19T01:36:31;98529.13;;;12.50;100.00
19672;BME280;9983;51.114;13.788;2022-09-19T01:41:34;98548.16;;;12.15;100.00
19672;BME280;9983;51.114;13.788;2022-09-19T01:47:15;98562.25;;;12.04;100.00
19672;BME280;9983;51.114;13.788;2022-09-19T01:58:02;98565.50;;;12.59;100.00
19672;BME280;9983;51.114;13.788;2022-09-19T02:03:48;98574.03;;;12.03;100.00
19672;BME280;9983;51.114;13.788;2022-09-19T02:08:51;98583.31;;;12.27;100.00
19672;BME280;9983;51.114;13.788;2022-09-19T02:14:00;98586.81;;;12.14;100.00
19672;BME280;9983;51.114;13.788;2022-09-19T02:19:12;98587.22;;;12.51;100.00
19672;BME280;9983;51.114;13.788;2022-09-19T02:24:17;98601.31;;;12.27;100.00
19672;BME280;9983;51.114;13.788;2022-09-19T02:29:22;98600.19;;;12.93;100.00
19672;BME280;9983;51.114;13.788;2022-09-19T02:34:26;98608.94;;;12.43;100.00
19672;BME280;9983;51.114;13.788;2022-09-19T02:39:30;98605.78;;;12.72;100.00
19672;BME280;9983;51.114;13.788;2022-09-19T02:44:58;98620.41;;;13.16;100.00
19672;BME280;9983;51.114;13.788;2022-09-19T02:50:19;98625.50;;;12.53;100.00
19672;BME280;9983;51.114;13.788;2022-09-19T02:55:34;98629.16;;;12.91;100.00
19672;BME280;9983;51.114;13.788;2022-09-19T03:00:39;98650.72;;;12.52;100.00
19672;BME280;9983;51.114;13.788;2022-09-19T03:05:40;98652.34;;;12.27;100.00
19672;BME280;9983;51.114;13.788;2022-09-19T03:10:42;98660.22;;;12.61;100.00
19672;BME280;9983;51.114;13.788;2022-09-19T03:15:59;98668.91;;;12.50;100.00
19672;BME280;9983;51.114;13.788;2022-09-19T03:21:10;98670.53;;;12.90;100.00
19672;BME280;9983;51.114;13.788;2022-09-19T03:26:16;98678.59;;;12.90;100.00
19672;BME280;9983;51.114;13.788;2022-09-19T03:31:17;98672.19;;;13.05;100.00
19672;BME280;9983;51.114;13.788;2022-09-19T03:36:18;98684.56;;;13.06;100.00
19672;BME280;9983;51.114;13.788;2022-09-19T03:41:20;98693.31;;;12.95;100.00
19672;BME280;9983;51.114;13.788;2022-09-19T03:46:21;98702.84;;;12.77;100.00
19672;BME280;9983;51.114;13.788;2022-09-19T03:51:21;98700.75;;;12.66;100.00
19672;BME280;9983;51.114;13.788;2022-09-19T03:56:22;98711.50;;;12.66;100.00
19672;BME280;9983;51.114;13.788;2022-09-19T04:01:22;98717.13;;;12.71;100.00
19672;BME280;9983;51.114;13.788;2022-09-19T04:06:22;98722.69;;;12.83;100.00
19672;BME280;9983;51.114;13.788;2022-09-19T04:11:23;98718.53;;;13.00;100.00
19672;BME280;9983;51.114;13.788;2022-09-19T04:16:23;98727.66;;;12.92;100.00
19672;BME280;9983;51.114;13.788;2022-09-19T04:21:26;98728.47;;;12.93;100.00
19672;BME280;9983;51.114;13.788;2022-09-19T04:26:27;98734.88;;;12.99;100.00
19672;BME280;9983;51.114;13.788;2022-09-19T04:31:27;98746.66;;;12.65;100.00
19672;BME280;9983;51.114;13.788;2022-09-19T04:36:28;98756.63;;;12.90;100.00
19672;BME280;9983;51.114;13.788;2022-09-19T04:41:34;98762.84;;;12.71;100.00
19672;BME280;9983;51.114;13.788;2022-09-19T04:46:35;98766.25;;;12.26;100.00
19672;BME280;9983;51.114;13.788;2022-09-19T04:51:35;98763.53;;;12.12;100.00
19672;BME280;9983;51.114;13.788;2022-09-19T04:56:35;98770.50;;;12.87;100.00
19672;BME280;9983;51.114;13.788;2022-09-19T05:01:36;98775.22;;;12.72;100.00
19672;BME280;9983;51.114;13.788;2022-09-19T05:06:37;98775.84;;;12.61;100.00
19672;BME280;9983;51.114;13.788;2022-09-19T05:11:37;98784.34;;;12.71;100.00
19672;BME280;9983;51.114;13.788;2022-09-19T05:16:41;98787.25;;;12.89;100.00
19672;BME280;9983;51.114;13.788;2022-09-19T05:21:41;98792.63;;;12.63;100.00
19672;BME280;9983;51.114;13.788;2022-09-19T05:26:45;98807.09;;;12.62;100.00
19672;BME280;9983;51.114;13.788;2022-09-19T05:31:46;98802.47;;;12.30;100.00
19672;BME280;9983;51.114;13.788;2022-09-19T05:36:46;98816.47;;;12.19;100.00
19672;BME280;9983;51.114;13.788;2022-09-19T05:41:47;98819.69;;;12.55;100.00
19672;BME280;9983;51.114;13.788;2022-09-19T05:46:48;98819.28;;;12.58;100.00
19672;BME280;9983;51.114;13.788;2022-09-19T05:51:48;98825.28;;;12.73;100.00
19672;BME280;9983;51.114;13.788;2022-09-19T05:56:48;98825.19;;;12.34;100.00
19672;BME280;9983;51.114;13.788;2022-09-19T06:01:53;98824.66;;;12.65;100.00
19672;BME280;9983;51.114;13.788;2022-09-19T06:06:54;98832.78;;;12.98;100.00
19672;BME280;9983;51.114;13.788;2022-09-19T06:11:54;98834.84;;;13.09;100.00
19672;BME280;9983;51.114;13.788;2022-09-19T06:16:54;98822.47;;;13.47;100.00
19672;BME280;9983;51.114;13.788;2022-09-19T06:21:56;98831.94;;;12.77;100.00
19672;BME280;9983;51.114;13.788;2022-09-19T06:26:57;98839.38;;;12.69;100.00
19672;BME280;9983;51.114;13.788;2022-09-19T06:31:57;98841.28;;;12.88;100.00
19672;BME280;9983;51.114;13.788;2022-09-19T06:36:58;98846.00;;;12.79;100.00
19672;BME280;9983;51.114;13.788;2022-09-19T06:41:58;98863.47;;;13.36;100.00
19672;BME280;9983;51.114;13.788;2022-09-19T06:46:58;98863.44;;;13.03;100.00
19672;BME280;9983;51.114;13.788;2022-09-19T06:51:59;98863.88;;;13.20;100.00
19672;BME280;9983;51.114;13.788;2022-09-19T06:57:00;98865.50;;;12.95;100.00
19672;BME280;9983;51.114;13.788;2022-09-19T07:02:00;98879.53;;;12.83;100.00
19672;BME280;9983;51.114;13.788;2022-09-19T07:07:01;98890.81;;;13.46;100.00
19672;BME280;9983;51.114;13.788;2022-09-19T07:12:01;98888.28;;;13.64;100.00
19672;BME280;9983;51.114;13.788;2022-09-19T07:17:01;98907.38;;;13.70;100.00
19672;BME280;9983;51.114;13.788;2022-09-19T07:22:02;98914.41;;;13.31;100.00
19672;BME280;9983;51.114;13.788;2022-09-19T07:27:04;98913.59;;;13.63;100.00
19672;BME280;9983;51.114;13.788;2022-09-19T07:32:04;98931.00;;;13.54;100.00
19672;BME280;9983;51.114;13.788;2022-09-19T07:37:04;98934.28;;;13.56;100.00
19672;BME280;9983;51.114;13.788;2022-09-19T07:42:04;98940.13;;;13.53;100.00
19672;BME280;9983;51.114;13.788;2022-09-19T07:47:05;98950.06;;;13.59;100.00
19672;BME280;9983;51.114;13.788;2022-09-19T07:52:24;98957.94;;;13.67;100.00
19672;BME280;9983;51.114;13.788;2022-09-19T07:57:24;98969.13;;;13.78;100.00
19672;BME280;9983;51.114;13.788;2022-09-19T08:02:25;98963.31;;;13.81;100.00
19672;BME280;9983;51.114;13.788;2022-09-19T08:07:25;98973.06;;;13.62;100.00
19672;BME280;9983;51.114;13.788;2022-09-19T08:12:25;98981.53;;;13.65;100.00
19672;BME280;9983;51.114;13.788;2022-09-19T08:17:25;98983.19;;;13.66;100.00
19672;BME280;9983;51.114;13.788;2022-09-19T08:22:27;98993.16;;;13.86;100.00
19672;BME280;9983;51.114;13.788;2022-09-19T08:27:27;99009.31;;;13.59;100.00
19672;BME280;9983;51.114;13.788;2022-09-19T08:32:27;99011.38;;;13.84;100.00
19672;BME280;9983;51.114;13.788;2022-09-19T08:37:28;99024.63;;;14.31;100.00
19672;BME280;9983;51.114;13.788;2022-09-19T08:42:34;99035.03;;;14.01;100.00
19672;BME280;9983;51.114;13.788;2022-09-19T08:47:38;99039.19;;;13.97;100.00
19672;BME280;9983;51.114;13.788;2022-09-19T08:52:45;99049.09;;;13.64;100.00
19672;BME280;9983;51.114;13.788;2022-09-19T08:57:57;99051.19;;;14.08;100.00
19672;BME280;9983;51.114;13.788;2022-09-19T09:03:04;99060.72;;;14.17;100.00
19672;BME280;9983;51.114;13.788;2022-09-19T09:08:19;99068.66;;;14.38;100.00
19672;BME280;9983;51.114;13.788;2022-09-19T09:24:36;99070.91;;;14.02;100.00
19672;BME280;9983;51.114;13.788;2022-09-19T09:29:45;99082.09;;;13.86;100.00
19672;BME280;9983;51.114;13.788;2022-09-19T09:35:09;99082.28;;;14.17;100.00
19672;BME280;9983;51.114;13.788;2022-09-19T09:40:14;99091.81;;;13.87;100.00
19672;BME280;9983;51.114;13.788;2022-09-19T09:45:42;99089.34;;;14.12;100.00
19672;BME280;9983;51.114;13.788;2022-09-19T10:01:52;99098.28;;;14.52;100.00
19672;BME280;9983;51.114;13.788;2022-09-19T10:07:25;99101.00;;;14.38;100.00
19672;BME280;9983;51.114;13.788;2022-09-19T10:12:30;99110.09;;;14.37;100.00
19672;BME280;9983;51.114;13.788;2022-09-19T10:17:36;99112.19;;;14.49;100.00
19672;BME280;9983;51.114;13.788;2022-09-19T10:22:40;99101.78;;;14.32;100.00
19672;BME280;9983;51.114;13.788;2022-09-19T10:27:40;99111.56;;;14.53;100.00
19672;BME280;9983;51.114;13.788;2022-09-19T10:32:46;99113.00;;;14.03;100.00
19672;BME280;9983;51.114;13.788;2022-09-19T10:43:20;99130.75;;;15.09;100.00
19672;BME280;9983;51.114;13.788;2022-09-19T10:48:30;99131.28;;;14.54;100.00
19672;BME280;9983;51.114;13.788;2022-09-19T10:53:32;99125.03;;;14.27;100.00
19672;BME280;9983;51.114;13.788;2022-09-19T10:58:37;99132.91;;;14.74;100.00
19672;BME280;9983;51.114;13.788;2022-09-19T11:03:39;99129.97;;;15.02;100.00
19672;BME280;9983;51.114;13.788;2022-09-19T11:08:51;99126.94;;;15.37;100.00
19672;BME280;9983;51.114;13.788;2022-09-19T11:14:07;99129.19;;;14.69;100.00
19672;BME280;9983;51.114;13.788;2022-09-19T11:19:25;99126.22;;;14.90;100.00
19672;BME280;9983;51.114;13.788;2022-09-19T11:24:53;99129.00;;;15.35;100.00
19672;BME280;9983;51.114;13.788;2022-09-19T11:30:09;99127.34;;;15.34;100.00
19672;BME280;9983;51.114;13.788;2022-09-19T11:35:25;99126.16;;;15.16;100.00
19672;BME280;9983;51.114;13.788;2022-09-19T11:40:47;99134.47;;;15.22;100.00
19672;BME280;9983;51.114;13.788;2022-09-19T11:46:07;99133.00;;;15.77;100.00
19672;BME280;9983;51.114;13.788;2022-09-19T12:02:05;99125.94;;;15.76;100.00
19672;BME280;9983;51.114;13.788;2022-09-19T12:07:42;99128.28;;;16.04;100.00
19672;BME280;9983;51.114;13.788;2022-09-19T12:12:54;99128.94;;;16.24;96.98
19672;BME280;9983;51.114;13.788;2022-09-19T12:18:01;99130.00;;;16.97;94.93
19672;BME280;9983;51.114;13.788;2022-09-19T12:23:12;99128.44;;;16.40;95.29
19672;BME280;9983;51.114;13.788;2022-09-19T12:28:37;99135.66;;;17.14;90.14
19672;BME280;9983;51.114;13.788;2022-09-19T12:40:01;99126.13;;;16.87;89.12
19672;BME280;9983;51.114;13.788;2022-09-19T12:45:13;99120.56;;;17.55;86.23
19672;BME280;9983;51.114;13.788;2022-09-19T12:50:16;99112.44;;;17.36;86.45
19672;BME280;9983;51.114;13.788;2022-09-19T12:55:24;99113.31;;;16.76;87.40
19672;BME280;9983;51.114;13.788;2022-09-19T13:00:29;99098.63;;;18.04;83.27
19672;BME280;9983;51.114;13.788;2022-09-19T13:05:40;99112.50;;;17.96;81.00
19672;BME280;9983;51.114;13.788;2022-09-19T13:15:55;99101.00;;;17.53;83.92
19672;BME280;9983;51.114;13.788;2022-09-19T13:20:57;99109.44;;;17.44;81.77
19672;BME280;9983;51.114;13.788;2022-09-19T13:26:19;99116.81;;;17.56;80.89
19672;BME280;9983;51.114;13.788;2022-09-19T13:31:31;99112.00;;;17.39;80.46
19672;BME280;9983;51.114;13.788;2022-09-19T13:47:10;99105.44;;;17.95;76.60
19672;BME280;9983;51.114;13.788;2022-09-19T13:52:21;99109.69;;;18.79;73.86
19672;BME280;9983;51.114;13.788;2022-09-19T13:57:24;99107.88;;;18.50;75.05
19672;BME280;9983;51.114;13.788;2022-09-19T14:02:33;99124.09;;;18.03;76.21
19672;BME280;9983;51.114;13.788;2022-09-19T14:07:47;99121.50;;;17.49;80.56
19672;BME280;9983;51.114;13.788;2022-09-19T14:23:10;99119.34;;;19.74;81.70
19672;BME280;9983;51.114;13.788;2022-09-19T14:34:03;99117.50;;;20.53;70.82
19672;BME280;9983;51.114;13.788;2022-09-19T14:39:38;99113.66;;;22.18;61.74
19672;BME280;9983;51.114;13.788;2022-09-19T14:55:27;99113.59;;;25.43;51.53
19672;BME280;9983;51.114;13.788;2022-09-19T15:00:30;99114.31;;;24.34;47.40
19672;BME280;9983;51.114;13.788;2022-09-19T15:05:33;99122.41;;;23.88;47.40
19672;BME280;9983;51.114;13.788;2022-09-19T15:10:34;99125.44;;;23.97;49.55
19672;BME280;9983;51.114;13.788;2022-09-19T15:15:40;99119.75;;;24.44;46.24
19672;BME280;9983;51.114;13.788;2022-09-19T15:20:42;99132.38;;;24.25;48.17
19672;BME280;9983;51.114;13.788;2022-09-19T15:25:42;99140.28;;;20.47;55.16
19672;BME280;9983;51.114;13.788;2022-09-19T15:30:49;99131.81;;;20.15;55.17
19672;BME280;9983;51.114;13.788;2022-09-19T15:35:51;99147.84;;;19.71;57.21
19672;BME280;9983;51.114;13.788;2022-09-19T15:40:52;99149.44;;;17.97;65.74
19672;BME280;9983;51.114;13.788;2022-09-19T15:45:57;99160.72;;;18.36;67.41
19672;BME280;9983;51.114;13.788;2022-09-19T15:51:03;99184.50;;;16.51;66.23
19672;BME280;9983;51.114;13.788;2022-09-19T15:56:11;99194.34;;;17.20;64.94
19672;BME280;9983;51.114;13.788;2022-09-19T16:01:26;99190.03;;;16.38;67.37
19672;BME280;9983;51.114;13.788;2022-09-19T16:07:19;99191.16;;;17.05;67.35
19672;BME280;9983;51.114;13.788;2022-09-19T16:12:32;99194.63;;;16.38;69.20
19672;BME280;9983;51.114;13.788;2022-09-19T16:22:53;99224.03;;;16.84;71.02
19672;BME280;9983;51.114;13.788;2022-09-19T16:27:53;99230.72;;;16.56;72.81
19672;BME280;9983;51.114;13.788;2022-09-19T16:32:54;99231.13;;;16.53;74.41
19672;BME280;9983;51.114;13.788;2022-09-19T16:37:54;99239.00;;;17.11;72.73
19672;BME280;9983;51.114;13.788;2022-09-19T16:42:54;99241.59;;;16.99;74.79
19672;BME280;9983;51.114;13.788;2022-09-19T16:47:55;99245.88;;;16.89;80.70
19672;BME280;9983;51.114;13.788;2022-09-19T16:52:55;99257.13;;;17.35;74.64
19672;BME280;9983;51.114;13.788;2022-09-19T16:57:57;99256.22;;;16.74;77.31
19672;BME280;9983;51.114;13.788;2022-09-19T17:02:57;99263.06;;;17.01;78.13
19672;BME280;9983;51.114;13.788;2022-09-19T17:07:58;99262.91;;;16.96;87.24
19672;BME280;9983;51.114;13.788;2022-09-19T17:12:58;99251.03;;;16.97;84.41
19672;BME280;9983;51.114;13.788;2022-09-19T17:17:59;99243.16;;;17.14;76.05
19672;BME280;9983;51.114;13.788;2022-09-19T17:22:59;99282.75;;;16.90;77.98
19672;BME280;9983;51.114;13.788;2022-09-19T17:28:01;99288.03;;;15.96;83.94
19672;BME280;9983;51.114;13.788;2022-09-19T17:33:02;99283.59;;;15.63;88.02
19672;BME280;9983;51.114;13.788;2022-09-19T17:38:02;99285.59;;;15.74;87.41
19672;BME280;9983;51.114;13.788;2022-09-19T17:43:03;99302.94;;;14.94;93.02
19672;BME280;9983;51.114;13.788;2022-09-19T17:48:05;99311.06;;;15.14;94.82
19672;BME280;9983;51.114;13.788;2022-09-19T17:53:08;99316.75;;;14.38;100.00
19672;BME280;9983;51.114;13.788;2022-09-19T17:58:09;99323.84;;;14.59;100.00
19672;BME280;9983;51.114;13.788;2022-09-19T18:03:12;99309.38;;;14.80;100.00
19672;BME280;9983;51.114;13.788;2022-09-19T18:08:18;99316.38;;;14.55;100.00
19672;BME280;9983;51.114;13.788;2022-09-19T18:13:18;99312.44;;;14.03;100.00
19672;BME280;9983;51.114;13.788;2022-09-19T18:18:18;99323.44;;;14.56;100.00
19672;BME280;9983;51.114;13.788;2022-09-19T18:23:19;99323.22;;;14.51;99.99
19672;BME280;9983;51.114;13.788;2022-09-19T18:28:19;99335.94;;;14.83;100.00
19672;BME280;9983;51.114;13.788;2022-09-19T18:33:21;99336.38;;;15.06;99.13
19672;BME280;9983;51.114;13.788;2022-09-19T18:38:22;99351.72;;;14.99;99.83
19672;BME280;9983;51.114;13.788;2022-09-19T18:43:22;99361.09;;;15.03;100.00
19672;BME280;9983;51.114;13.788;2022-09-19T18:48:23;99368.31;;;14.83;100.00
19672;BME280;9983;51.114;13.788;2022-09-19T18:53:23;99372.00;;;14.56;100.00
19672;BME280;9983;51.114;13.788;2022-09-19T18:58:25;99381.66;;;15.04;100.00
19672;BME280;9983;51.114;13.788;2022-09-19T19:03:25;99383.00;;;14.13;100.00
19672;BME280;9983;51.114;13.788;2022-09-19T19:08:26;99368.25;;;13.75;100.00
19672;BME280;9983;51.114;13.788;2022-09-19T19:13:26;99356.28;;;13.84;100.00
19672;BME280;9983;51.114;13.788;2022-09-19T19:18:27;99351.84;;;14.04;100.00
19672;BME280;9983;51.114;13.788;2022-09-19T19:23:27;99356.91;;;14.20;100.00
19672;BME280;9983;51.114;13.788;2022-09-19T19:28:28;99350.03;;;14.18;100.00
19672;BME280;9983;51.114;13.788;2022-09-19T19:33:28;99361.47;;;14.26;100.00
19672;BME280;9983;51.114;13.788;2022-09-19T19:38:30;99357.28;;;14.17;100.00
19672;BME280;9983;51.114;13.788;2022-09-19T19:43:32;99354.56;;;13.70;100.00
19672;BME280;9983;51.114;13.788;2022-09-19T19:48:34;99364.63;;;13.89;100.00
19672;BME280;9983;51.114;13.788;2022-09-19T19:53:35;99355.41;;;13.42;100.00
19672;BME280;9983;51.114;13.788;2022-09-19T19:58:35;99350.28;;;13.47;100.00
19672;BME280;9983;51.114;13.788;2022-09-19T20:03:36;99353.56;;;13.49;100.00
19672;BME280;9983;51.114;13.788;2022-09-19T20:08:37;99357.97;;;13.85;100.00
19672;BME280;9983;51.114;13.788;2022-09-19T20:13:38;99359.28;;;14.02;100.00
19672;BME280;9983;51.114;13.788;2022-09-19T20:18:44;99361.13;;;13.60;100.00
19672;BME280;9983;51.114;13.788;2022-09-19T20:23:45;99362.53;;;13.91;100.00
19672;BME280;9983;51.114;13.788;2022-09-19T20:28:52;99366.94;;;14.39;100.00
19672;BME280;9983;51.114;13.788;2022-09-19T20:33:54;99370.78;;;14.17;100.00
19672;BME280;9983;51.114;13.788;2022-09-19T20:38:56;99374.97;;;14.26;100.00
19672;BME280;9983;51.114;13.788;2022-09-19T20:43:57;99381.75;;;14.57;100.00
19672;BME280;9983;51.114;13.788;2022-09-19T20:48:57;99385.22;;;14.44;100.00
19672;BME280;9983;51.114;13.788;2022-09-19T20:53:57;99383.13;;;14.39;100.00
19672;BME280;9983;51.114;13.788;2022-09-19T20:58:59;99391.56;;;13.89;100.00
19672;BME280;9983;51.114;13.788;2022-09-19T21:03:59;99389.31;;;14.33;100.00
19672;BME280;9983;51.114;13.788;2022-09-19T21:09:00;99376.00;;;14.25;100.00
19672;BME280;9983;51.114;13.788;2022-09-19T21:14:01;99382.59;;;14.16;100.00
19672;BME280;9983;51.114;13.788;2022-09-19T21:19:01;99381.38;;;13.56;100.00
19672;BME280;9983;51.114;13.788;2022-09-19T21:24:02;99397.09;;;14.15;100.00
19672;BME280;9983;51.114;13.788;2022-09-19T21:29:06;99394.19;;;14.17;100.00
19672;BME280;9983;51.114;13.788;2022-09-19T21:34:07;99393.78;;;14.13;100.00
19672;BME280;9983;51.114;13.788;2022-09-19T21:39:11;99392.94;;;13.50;100.00
19672;BME280;9983;51.114;13.788;2022-09-19T21:44:12;99395.47;;;14.14;100.00
19672;BME280;9983;51.114;13.788;2022-09-19T21:49:12;99389.41;;;14.47;100.00
19672;BME280;9983;51.114;13.788;2022-09-19T21:54:12;99393.78;;;14.13;100.00
19672;BME280;9983;51.114;13.788;2022-09-19T21:59:12;99396.06;;;13.82;100.00
19672;BME280;9983;51.114;13.788;2022-09-19T22:04:13;99402.88;;;14.05;100.00
19672;BME280;9983;51.114;13.788;2022-09-19T22:09:13;99407.97;;;14.28;100.00
19672;BME280;9983;51.114;13.788;2022-09-19T22:14:13;99407.00;;;14.08;100.00
19672;BME280;9983;51.114;13.788;2022-09-19T22:19:14;99412.50;;;13.59;100.00
19672;BME280;9983;51.114;13.788;2022-09-19T22:24:14;99401.44;;;13.82;100.00
19672;BME280;9983;51.114;13.788;2022-09-19T22:29:14;99397.91;;;14.09;100.00
19672;BME280;9983;51.114;13.788;2022-09-19T22:34:15;99399.50;;;13.97;100.00
19672;BME280;9983;51.114;13.788;2022-09-19T22:39:16;99404.75;;;13.77;100.00
19672;BME280;9983;51.114;13.788;2022-09-19T22:44:16;99404.00;;;13.90;100.00
19672;BME280;9983;51.114;13.788;2022-09-19T22:49:17;99412.94;;;14.31;100.00
19672;BME280;9983;51.114;13.788;2022-09-19T22:54:17;99413.72;;;13.56;100.00
19672;BME280;9983;51.114;13.788;2022-09-19T22:59:17;99414.94;;;14.16;100.00
19672;BME280;9983;51.114;13.788;2022-09-19T23:04:18;99410.41;;;14.23;100.00
19672;BME280;9983;51.114;13.788;2022-09-19T23:09:19;99415.09;;;14.08;100.00
19672;BME280;9983;51.114;13.788;2022-09-19T23:14:20;99418.66;;;14.15;100.00
19672;BME280;9983;51.114;13.788;2022-09-19T23:19:24;99429.22;;;14.10;100.00
19672;BME280;9983;51.114;13.788;2022-09-19T23:24:27;99428.56;;;14.08;100.00
19672;BME280;9983;51.114;13.788;2022-09-19T23:29:27;99430.34;;;14.22;100.00
19672;BME280;9983;51.114;13.788;2022-09-19T23:34:29;99437.69;;;14.07;100.00
19672;BME280;9983;51.114;13.788;2022-09-19T23:39:30;99443.88;;;14.01;100.00
19672;BME280;9983;51.114;13.788;2022-09-19T23:44:30;99451.81;;;14.09;100.00
19672;BME280;9983;51.114;13.788;2022-09-19T23:49:30;99444.09;;;13.72;100.00
19672;BME280;9983;51.114;13.788;2022-09-19T23:54:30;99442.81;;;13.67;100.00
19672;BME280;9983;51.114;13.788;2022-09-19T23:59:31;99454.88;;;13.08;100.00
